createdAt,value
2023-07-11T00:07:47.377Z,21.30
2023-07-11T00:18:22.229Z,21.10
2023-07-11T00:29:00.668Z,20.90
2023-07-11T00:39:36.843Z,20.90
2023-07-11T00:50:12.263Z,20.90
2023-07-11T01:00:48.821Z,20.70
2023-07-11T01:11:26.723Z,20.70
2023-07-11T01:22:01.655Z,20.50
2023-07-11T01:32:36.749Z,20.50
2023-07-11T01:43:11.827Z,20.20
2023-07-11T01:53:46.831Z,20.10
2023-07-11T02:04:25.329Z,20.10
2023-07-11T02:15:00.395Z,20.10
2023-07-11T02:25:35.324Z,20.00
2023-07-11T02:36:10.323Z,19.90
2023-07-11T02:46:45.241Z,19.80
2023-07-11T02:57:20.118Z,19.60
2023-07-11T03:08:02.632Z,19.60
2023-07-11T03:18:37.859Z,19.50
2023-07-11T03:29:15.136Z,19.40
2023-07-11T03:39:50.362Z,19.40
2023-07-11T03:50:25.595Z,19.30
2023-07-11T04:01:00.624Z,19.40
2023-07-11T04:11:35.676Z,19.20
2023-07-11T04:22:10.694Z,19.20
2023-07-11T04:32:45.429Z,19.30
2023-07-11T04:43:19.964Z,19.40
2023-07-11T04:53:55.068Z,19.50
2023-07-11T05:04:29.910Z,19.60
2023-07-11T05:15:05.038Z,19.80
2023-07-11T05:25:40.073Z,19.90
2023-07-11T05:36:29.052Z,20.20
2023-07-11T05:47:04.634Z,20.20
2023-07-11T05:57:39.365Z,20.30
2023-07-11T06:08:14.343Z,20.70
2023-07-11T06:18:50.396Z,20.90
2023-07-11T06:29:25.639Z,20.90
2023-07-11T06:40:00.799Z,21.00
2023-07-11T06:50:36.090Z,21.50
2023-07-11T07:01:22.838Z,21.80
2023-07-11T07:12:07.868Z,22.00
2023-07-11T07:22:42.917Z,22.40
2023-07-11T07:33:17.820Z,22.70
2023-07-11T07:43:52.484Z,23.60
2023-07-11T07:54:28.104Z,25.20
2023-07-11T08:05:03.876Z,26.40
2023-07-11T08:15:38.814Z,27.30
2023-07-11T08:26:13.955Z,27.90
2023-07-11T08:36:49.223Z,28.30
2023-07-11T08:47:37.698Z,29.00
2023-07-11T08:58:45.637Z,29.70
2023-07-11T09:09:20.999Z,30.30
2023-07-11T09:20:38.433Z,31.00
2023-07-11T09:31:19.374Z,31.70
2023-07-11T09:42:03.693Z,32.30
2023-07-11T09:52:40.596Z,32.50
2023-07-11T10:03:21.509Z,33.20
2023-07-11T10:13:58.139Z,33.10
2023-07-11T10:24:39.292Z,33.60
2023-07-11T10:35:20.012Z,34.30
2023-07-11T10:46:10.828Z,34.80
2023-07-11T10:56:50.259Z,34.70
2023-07-11T11:07:36.214Z,35.40
2023-07-11T11:18:42.661Z,35.50
2023-07-11T11:30:03.190Z,35.60
2023-07-11T11:40:44.916Z,35.60
2023-07-11T11:51:20.005Z,36.20
2023-07-11T12:01:54.998Z,36.60
2023-07-11T12:12:35.750Z,36.70
2023-07-11T12:23:33.394Z,37.10
2023-07-11T12:34:13.946Z,37.00
2023-07-11T12:44:49.522Z,37.70
2023-07-11T12:55:24.658Z,36.50
2023-07-11T13:06:19.902Z,37.40
2023-07-11T13:16:56.442Z,36.90
2023-07-11T13:27:35.544Z,37.90
2023-07-11T13:38:16.655Z,37.10
2023-07-11T13:48:52.027Z,37.70
2023-07-11T13:59:37.702Z,37.40
2023-07-11T14:10:15.089Z,37.60
2023-07-11T14:20:50.517Z,37.50
2023-07-11T14:31:25.406Z,37.60
2023-07-11T14:42:00.762Z,37.50
2023-07-11T14:52:36.108Z,38.20
2023-07-11T15:03:25.691Z,37.80
2023-07-11T15:24:57.931Z,37.70
2023-07-11T15:35:32.821Z,37.10
2023-07-11T15:46:19.281Z,36.80
2023-07-11T15:56:56.375Z,36.00
2023-07-11T16:07:31.981Z,35.80
2023-07-11T16:18:14.287Z,35.20
2023-07-11T16:28:51.175Z,35.00
2023-07-11T16:39:32.048Z,34.50
2023-07-11T16:50:25.578Z,34.00
2023-07-11T17:01:00.853Z,33.60
2023-07-11T17:11:35.741Z,33.20
2023-07-11T17:22:15.906Z,32.10
2023-07-11T17:32:51.297Z,31.50
2023-07-11T17:43:27.835Z,31.20
2023-07-11T17:54:03.010Z,30.60
2023-07-11T18:04:38.055Z,30.20
2023-07-11T18:15:13.348Z,29.80
2023-07-11T18:25:48.724Z,28.90
2023-07-11T18:36:27.299Z,28.80
2023-07-11T18:47:02.252Z,28.20
2023-07-11T18:57:38.413Z,27.70
2023-07-11T19:08:18.992Z,27.50
2023-07-11T19:18:54.129Z,27.30
2023-07-11T19:29:29.104Z,27.20
2023-07-11T19:40:09.848Z,27.20
2023-07-11T19:50:46.295Z,27.00
2023-07-11T20:01:21.855Z,26.80
2023-07-11T20:11:56.822Z,26.80
2023-07-11T20:22:31.886Z,26.60
2023-07-11T20:33:08.890Z,26.40
2023-07-11T20:43:44.342Z,26.30
2023-07-11T20:54:19.251Z,26.10
2023-07-11T21:04:54.286Z,25.90
2023-07-11T21:15:29.213Z,25.70
2023-07-11T21:26:14.655Z,25.50
2023-07-11T21:36:50.161Z,25.10
2023-07-11T21:47:25.732Z,24.90
2023-07-11T21:58:01.286Z,24.80
2023-07-11T22:08:36.289Z,23.20
2023-07-11T22:19:15.007Z,22.40
2023-07-11T22:29:50.002Z,22.30
2023-07-11T22:40:33.363Z,22.20
2023-07-11T22:51:14.614Z,22.10
2023-07-11T23:01:50.107Z,22.00
2023-07-11T23:12:24.842Z,22.20
2023-07-11T23:23:00.851Z,22.30
2023-07-11T23:33:36.166Z,22.30
2023-07-11T23:44:11.365Z,22.20
2023-07-11T23:54:46.610Z,22.20
